createdAt,value
2023-03-14T00:00:57.740Z,22.14
2023-03-14T00:04:57.656Z,22.13
2023-03-14T00:08:57.598Z,22.14
2023-03-14T00:12:57.514Z,22.12
2023-03-14T00:16:57.459Z,22.13
2023-03-14T00:20:57.365Z,22.12
2023-03-14T00:24:57.326Z,22.12
2023-03-14T00:28:57.248Z,22.11
2023-03-14T00:32:57.217Z,22.12
2023-03-14T00:36:57.122Z,22.12
2023-03-14T00:40:57.224Z,22.11
2023-03-14T00:44:57.042Z,22.11
2023-03-14T00:48:57.035Z,22.11
2023-03-14T00:52:56.954Z,22.11
2023-03-14T00:56:56.946Z,22.10
2023-03-14T01:00:56.877Z,22.10
2023-03-14T01:04:56.840Z,22.10
2023-03-14T01:08:56.778Z,22.10
2023-03-14T01:12:56.764Z,22.10
2023-03-14T01:16:56.690Z,22.09
2023-03-14T01:20:56.664Z,22.09
2023-03-14T01:24:56.610Z,22.09
2023-03-14T01:28:56.576Z,22.09
2023-03-14T01:32:56.577Z,22.08
2023-03-14T01:36:56.530Z,22.08
2023-03-14T01:40:56.474Z,22.08
2023-03-14T01:44:56.526Z,22.07
2023-03-14T01:48:56.432Z,22.07
2023-03-14T01:52:56.386Z,22.07
2023-03-14T01:56:56.359Z,22.07
2023-03-14T02:00:56.392Z,22.07
2023-03-14T02:04:56.349Z,22.06
2023-03-14T02:08:56.319Z,22.06
2023-03-14T02:12:56.297Z,22.05
2023-03-14T02:16:56.267Z,22.06
2023-03-14T02:20:56.255Z,22.05
2023-03-14T02:24:56.212Z,22.05
2023-03-14T02:28:56.228Z,22.05
2023-03-14T02:32:56.298Z,22.05
2023-03-14T02:36:56.172Z,22.05
2023-03-14T02:40:56.172Z,22.05
2023-03-14T02:44:56.120Z,22.04
2023-03-14T02:48:56.127Z,22.04
2023-03-14T02:52:56.115Z,22.03
2023-03-14T02:56:56.060Z,22.03
2023-03-14T03:00:56.134Z,22.03
2023-03-14T03:04:56.042Z,22.03
2023-03-14T03:08:56.017Z,22.03
2023-03-14T03:12:56.068Z,22.02
2023-03-14T03:16:56.034Z,22.02
2023-03-14T03:20:56.028Z,22.01
2023-03-14T03:24:56.266Z,22.01
2023-03-14T03:28:55.970Z,22.01
2023-03-14T03:32:56.080Z,22.01
2023-03-14T03:36:55.901Z,22.01
2023-03-14T03:40:55.944Z,22.00
2023-03-14T03:44:55.921Z,22.00
2023-03-14T03:48:55.946Z,21.99
2023-03-14T03:52:55.956Z,22.00
2023-03-14T03:56:55.914Z,22.00
2023-03-14T04:00:55.909Z,21.97
2023-03-14T04:04:55.906Z,21.97
2023-03-14T04:08:55.999Z,21.96
2023-03-14T04:12:55.891Z,21.97
2023-03-14T04:16:55.927Z,21.96
2023-03-14T04:20:55.939Z,21.96
2023-03-14T04:24:55.972Z,21.96
2023-03-14T04:28:55.946Z,21.95
2023-03-14T04:32:56.069Z,21.95
2023-03-14T04:36:56.250Z,21.95
2023-03-14T04:40:55.979Z,21.95
2023-03-14T04:44:55.986Z,21.93
2023-03-14T04:48:56.005Z,21.92
2023-03-14T04:52:56.045Z,21.93
2023-03-14T04:56:56.062Z,21.92
2023-03-14T05:00:56.091Z,21.91
2023-03-14T05:04:56.139Z,21.91
2023-03-14T05:08:56.122Z,21.91
2023-03-14T05:12:56.197Z,21.90
2023-03-14T05:16:56.233Z,21.90
2023-03-14T05:20:56.258Z,21.89
2023-03-14T05:24:56.304Z,21.89
2023-03-14T05:28:56.321Z,21.88
2023-03-14T05:32:56.450Z,21.89
2023-03-14T05:36:56.426Z,21.88
2023-03-14T05:40:56.417Z,21.87
2023-03-14T05:44:56.475Z,21.87
2023-03-14T05:48:56.494Z,21.87
2023-03-14T05:52:56.542Z,21.87
2023-03-14T05:56:56.550Z,21.86
2023-03-14T06:00:56.536Z,21.87
2023-03-14T06:04:56.604Z,21.86
2023-03-14T06:08:56.564Z,21.87
2023-03-14T06:12:56.610Z,21.88
2023-03-14T06:16:56.712Z,21.89
2023-03-14T06:20:56.653Z,21.89
2023-03-14T06:24:56.712Z,21.89
2023-03-14T06:28:56.690Z,21.89
2023-03-14T06:32:56.807Z,21.90
2023-03-14T06:36:56.851Z,21.89
2023-03-14T06:40:56.835Z,21.93
2023-03-14T06:44:56.756Z,22.02
2023-03-14T06:48:56.844Z,22.12
2023-03-14T06:52:56.836Z,22.21
2023-03-14T06:56:56.838Z,22.33
2023-03-14T07:00:56.513Z,22.46
2023-03-14T07:04:56.425Z,22.56
2023-03-14T07:08:56.862Z,22.68
2023-03-14T07:12:56.193Z,22.76
2023-03-14T07:16:56.012Z,22.84
2023-03-14T07:20:55.806Z,22.89
2023-03-14T07:24:55.614Z,22.97
2023-03-14T07:28:55.394Z,23.02
2023-03-14T07:32:55.253Z,23.06
2023-03-14T07:36:55.032Z,23.11
2023-03-14T07:40:54.842Z,23.14
2023-03-14T07:44:54.601Z,23.18
2023-03-14T07:48:54.904Z,23.19
2023-03-14T07:52:54.384Z,23.23
2023-03-14T07:56:53.977Z,23.32
2023-03-14T08:00:53.841Z,23.38
2023-03-14T08:04:53.773Z,23.45
2023-03-14T08:08:53.952Z,23.47
2023-03-14T08:12:53.516Z,23.55
2023-03-14T08:16:53.328Z,23.61
2023-03-14T08:20:53.214Z,23.63
2023-03-14T08:24:53.064Z,23.67
2023-03-14T08:28:52.862Z,23.71
2023-03-14T08:32:52.675Z,23.75
2023-03-14T08:36:52.418Z,23.77
2023-03-14T08:40:52.404Z,23.78
2023-03-14T08:44:52.388Z,23.71
2023-03-14T08:48:51.891Z,23.64
2023-03-14T08:52:51.845Z,23.30
2023-03-14T08:56:51.893Z,23.19
2023-03-14T09:00:51.886Z,23.12
2023-03-14T09:04:51.911Z,23.09
2023-03-14T09:08:51.917Z,23.10
2023-03-14T09:12:51.966Z,23.08
2023-03-14T09:16:51.843Z,23.05
2023-03-14T09:20:51.611Z,23.08
2023-03-14T09:24:51.452Z,23.02
2023-03-14T09:28:51.268Z,23.05
2023-03-14T09:32:51.107Z,23.17
2023-03-14T09:36:50.885Z,23.29
2023-03-14T09:40:50.925Z,23.33
2023-03-14T09:44:50.496Z,23.33
2023-03-14T09:48:50.389Z,23.29
2023-03-14T09:52:50.440Z,23.26
2023-03-14T09:56:49.849Z,23.23
2023-03-14T10:00:49.795Z,23.21
2023-03-14T10:04:49.455Z,23.19
2023-03-14T10:08:49.531Z,23.19
2023-03-14T10:12:49.635Z,23.20
2023-03-14T10:16:49.559Z,23.23
2023-03-14T10:20:49.445Z,23.24
2023-03-14T10:24:49.510Z,23.25
2023-03-14T10:28:49.921Z,23.23
2023-03-14T10:32:50.042Z,23.22
2023-03-14T10:36:49.412Z,23.23
2023-03-14T10:40:49.418Z,23.24
2023-03-14T10:44:49.419Z,23.23
2023-03-14T10:48:49.506Z,23.30
2023-03-14T10:53:02.119Z,23.42
2023-03-14T10:56:50.433Z,23.49
2023-03-14T11:00:49.014Z,23.54
2023-03-14T11:04:48.923Z,23.61
2023-03-14T11:08:48.714Z,23.68
2023-03-14T11:12:48.525Z,23.72
2023-03-14T11:16:49.761Z,23.78
2023-03-14T11:20:48.184Z,23.80
2023-03-14T11:24:48.177Z,23.82
2023-03-14T11:28:48.134Z,23.87
2023-03-14T11:32:48.173Z,23.88
2023-03-14T11:36:48.444Z,23.89
2023-03-14T11:40:48.934Z,23.87
2023-03-14T11:44:48.060Z,23.91
2023-03-14T11:48:48.022Z,23.98
2023-03-14T11:52:48.065Z,24.05
2023-03-14T11:56:47.902Z,24.10
2023-03-14T12:00:47.694Z,24.14
2023-03-14T12:04:49.078Z,24.17
2023-03-14T12:08:47.273Z,24.20
2023-03-14T12:12:47.024Z,24.21
2023-03-14T12:16:46.802Z,24.22
2023-03-14T12:20:46.763Z,24.27
2023-03-14T12:24:46.495Z,24.32
2023-03-14T12:28:46.237Z,24.36
2023-03-14T12:32:46.003Z,24.39
2023-03-14T12:36:45.614Z,24.32
2023-03-14T12:40:45.457Z,24.25
2023-03-14T12:44:45.155Z,24.19
2023-03-14T12:48:44.986Z,24.15
2023-03-14T12:52:46.379Z,24.10
2023-03-14T12:56:44.454Z,24.05
2023-03-14T13:00:44.314Z,24.02
2023-03-14T13:04:44.039Z,24.00
2023-03-14T13:08:44.303Z,23.98
2023-03-14T13:12:43.469Z,23.97
2023-03-14T13:16:43.528Z,23.96
2023-03-14T13:20:43.010Z,23.95
2023-03-14T13:24:42.984Z,23.94
2023-03-14T13:28:42.662Z,23.92
2023-03-14T13:32:42.546Z,23.89
2023-03-14T13:36:42.184Z,23.88
2023-03-14T13:40:42.000Z,23.86
2023-03-14T13:44:41.818Z,23.84
2023-03-14T13:48:41.575Z,23.32
2023-03-14T13:52:41.427Z,22.71
2023-03-14T13:56:41.875Z,22.46
2023-03-14T14:00:41.211Z,21.83
2023-03-14T14:04:41.354Z,21.80
2023-03-14T14:08:41.423Z,22.03
2023-03-14T14:12:41.521Z,22.17
2023-03-14T14:16:41.506Z,22.23
2023-03-14T14:20:41.404Z,22.26
2023-03-14T14:24:41.495Z,22.27
2023-03-14T14:28:41.396Z,22.31
2023-03-14T14:32:41.412Z,22.29
2023-03-14T14:36:41.335Z,22.21
2023-03-14T14:40:41.359Z,22.15
2023-03-14T14:44:41.396Z,22.12
2023-03-14T14:48:41.432Z,22.07
2023-03-14T14:52:41.534Z,22.04
2023-03-14T14:56:41.581Z,22.03
2023-03-14T15:00:41.707Z,22.01
2023-03-14T15:04:41.794Z,21.97
2023-03-14T15:08:42.057Z,21.92
2023-03-14T15:12:42.063Z,21.87
2023-03-14T15:16:42.176Z,21.84
2023-03-14T15:20:42.325Z,21.78
2023-03-14T15:24:42.259Z,21.72
2023-03-14T15:28:42.148Z,21.72
2023-03-14T15:32:42.073Z,21.67
2023-03-14T15:36:41.968Z,21.65
2023-03-14T15:40:41.854Z,21.63
2023-03-14T15:44:41.776Z,21.61
2023-03-14T15:48:41.665Z,21.58
2023-03-14T15:52:41.525Z,21.58
2023-03-14T15:56:41.470Z,21.50
2023-03-14T16:00:41.369Z,21.43
2023-03-14T16:04:41.301Z,21.39
2023-03-14T16:08:41.139Z,21.40
2023-03-14T16:12:41.138Z,21.39
2023-03-14T16:16:41.162Z,21.36
2023-03-14T16:20:48.095Z,21.40
2023-03-14T16:24:41.975Z,21.32
2023-03-14T16:28:40.927Z,21.22
2023-03-14T16:32:40.892Z,21.15
2023-03-14T16:36:40.726Z,21.13
2023-03-14T16:40:40.642Z,21.14
2023-03-14T16:44:40.637Z,21.09
2023-03-14T16:48:40.572Z,21.07
2023-03-14T16:52:40.526Z,21.04
2023-03-14T16:56:40.567Z,21.00
2023-03-14T17:00:40.485Z,20.99
2023-03-14T17:04:40.420Z,21.00
2023-03-14T17:08:40.405Z,21.00
2023-03-14T17:12:40.700Z,20.97
2023-03-14T17:16:40.427Z,21.02
2023-03-14T17:20:40.346Z,21.15
2023-03-14T17:24:40.304Z,21.18
2023-03-14T17:28:40.268Z,21.24
2023-03-14T17:32:40.357Z,21.22
2023-03-14T17:36:40.252Z,21.06
2023-03-14T17:40:40.241Z,20.94
2023-03-14T17:44:40.229Z,20.85
2023-03-14T17:48:40.315Z,20.84
2023-03-14T17:52:40.408Z,20.80
2023-03-14T17:56:40.547Z,20.71
2023-03-14T18:00:40.661Z,20.62
2023-03-14T18:04:40.805Z,20.74
2023-03-14T18:08:40.700Z,20.84
2023-03-14T18:12:40.754Z,20.89
2023-03-14T18:16:40.770Z,20.81
2023-03-14T18:20:40.821Z,20.73
2023-03-14T18:24:40.883Z,20.68
2023-03-14T18:28:40.976Z,20.68
2023-03-14T18:32:41.193Z,20.57
2023-03-14T18:36:41.200Z,20.49
2023-03-14T18:40:41.303Z,20.42
2023-03-14T18:44:41.499Z,20.37
2023-03-14T18:48:41.702Z,20.31
2023-03-14T18:52:41.886Z,20.30
2023-03-14T18:56:42.139Z,20.21
2023-03-14T19:00:42.084Z,20.15
2023-03-14T19:04:42.037Z,20.08
2023-03-14T19:08:41.993Z,20.16
2023-03-14T19:12:41.943Z,20.03
2023-03-14T19:16:41.895Z,19.96
2023-03-14T19:20:41.856Z,19.94
2023-03-14T19:24:41.868Z,20.00
2023-03-14T19:28:41.834Z,19.90
2023-03-14T19:32:41.932Z,20.00
2023-03-14T19:36:41.795Z,19.97
2023-03-14T19:40:41.803Z,19.87
2023-03-14T19:44:41.757Z,19.82
2023-03-14T19:48:41.775Z,19.77
2023-03-14T19:52:41.718Z,19.83
2023-03-14T19:56:41.707Z,19.82
2023-03-14T20:00:41.723Z,19.64
2023-03-14T20:04:41.793Z,19.57
2023-03-14T20:08:41.865Z,19.50
2023-03-14T20:12:41.928Z,19.56
2023-03-14T20:16:42.084Z,19.64
2023-03-14T20:20:42.062Z,19.61
2023-03-14T20:24:42.111Z,19.49
2023-03-14T20:28:42.216Z,19.38
2023-03-14T20:32:42.470Z,19.34
2023-03-14T20:36:42.508Z,19.26
2023-03-14T20:40:42.653Z,19.24
2023-03-14T20:44:42.828Z,19.25
2023-03-14T20:48:42.926Z,19.24
2023-03-14T20:52:43.094Z,19.19
2023-03-14T20:56:43.208Z,19.28
2023-03-14T21:00:43.684Z,19.39
2023-03-14T21:04:43.624Z,19.36
2023-03-14T21:08:43.553Z,19.24
2023-03-14T21:12:43.724Z,19.18
2023-03-14T21:16:43.915Z,19.13
2023-03-14T21:20:44.111Z,19.05
2023-03-14T21:24:44.336Z,19.06
2023-03-14T21:28:44.492Z,19.22
2023-03-14T21:32:44.776Z,19.18
2023-03-14T21:36:45.379Z,19.14
2023-03-14T21:40:45.112Z,19.05
2023-03-14T21:44:45.347Z,19.02
2023-03-14T21:48:45.597Z,18.98
2023-03-14T21:52:45.809Z,18.91
2023-03-14T21:56:45.821Z,18.87
2023-03-14T22:00:45.820Z,18.87
2023-03-14T22:04:45.798Z,18.90
2023-03-14T22:08:45.796Z,18.86
2023-03-14T22:12:45.797Z,18.83
2023-03-14T22:16:45.821Z,18.81
2023-03-14T22:20:45.814Z,18.96
2023-03-14T22:24:45.793Z,19.04
2023-03-14T22:28:45.816Z,19.05
2023-03-14T22:32:45.866Z,19.00
2023-03-14T22:36:46.035Z,18.95
2023-03-14T22:40:46.345Z,18.88
2023-03-14T22:44:46.329Z,18.83
2023-03-14T22:48:46.429Z,18.82
2023-03-14T22:52:46.354Z,18.71
2023-03-14T22:56:46.350Z,18.73
2023-03-14T23:00:46.427Z,18.65
2023-03-14T23:04:46.412Z,18.72
2023-03-14T23:08:46.440Z,18.80
2023-03-14T23:12:46.444Z,18.82
2023-03-14T23:16:46.492Z,18.83
2023-03-14T23:20:48.125Z,18.81
2023-03-14T23:24:46.569Z,18.61
2023-03-14T23:28:46.745Z,18.49
2023-03-14T23:32:46.817Z,18.42
2023-03-14T23:36:46.941Z,18.35
2023-03-14T23:40:47.083Z,18.30
2023-03-14T23:44:47.126Z,18.31
2023-03-14T23:48:47.492Z,18.33
2023-03-14T23:52:47.327Z,18.38
2023-03-14T23:56:47.432Z,18.28
